TLSO2: Arkansas River, Tulsa, OK

                                SHEF ID:       TLSO2     Arkansas River at Tulsa, OK
STATION TYPE: Stream Gauge
Regulating: Stage = 15.00, Flow = 96489

PRECIP STAGE STAGE(2) RIV-FLOW WTR-TEMP DIS-OXY BAT-LOAD
in ft ft cfs F mg/l volt
Ccp-Rev Ccp-Rev Ccp-Rev Ccp-Rev Ccp-Rev Ccp-Rev Ccp-Rev
(America/Chicago)
02/18 00:00 0.00 4.62 ---- 6342 53.17 11.33 ----
02/18 01:00 0.00 4.62 ---- 6342 52.95 11.22 ----
02/18 02:00 0.00 4.59 ---- 6179 53.19 10.88 ----
02/18 03:00 0.00 4.56 ---- 6013 51.60 10.51 ----
02/18 04:00 0.00 4.54 ---- 5903 50.90 10.39 ----
02/18 05:00 0.00 4.54 ---- 5903 50.58 10.26 ----
02/18 06:00 0.00 4.51 ---- 5741 50.61 10.11 ----
02/18 07:00 0.00 4.49 ---- 5634 49.14 10.03 ----
02/18 08:00 0.00 4.49 ---- 5634 48.99 9.96 ----
02/18 09:00 0.00 4.46 ---- 5477 49.19 10.03 ----
02/18 10:00 0.00 4.48 ---- 5581 49.05 10.52 ----
02/18 11:00 0.00 4.46 ---- 5477 49.87 11.17 ----
02/18 12:00 0.00 4.47 ---- 5529 50.67 11.87 ----
02/18 13:00 0.00 4.48 ---- 5581 51.85 12.63 ----
02/18 14:00 0.00 4.62 ---- 6342 53.04 13.31 ----
02/18 15:00 0.00 4.67 ---- 6614 52.75 14.36 ----
02/18 16:00 0.00 4.72 ---- 6888 53.74 15.03 ----
02/18 17:00 0.00 4.62 ---- 6342 53.89 14.50 ----
02/18 18:00 0.00 4.63 ---- 6396 52.03 13.78 ----
02/18 19:00 0.00 4.67 ---- 6614 51.06 13.24 ----
02/18 20:00 0.00 4.70 ---- 6778 51.12 13.07 ----
02/18 21:00 0.00 4.68 ---- 6668 50.20 12.73 ----
02/18 22:00 0.00 4.69 ---- 6723 49.78 12.47 ----
02/18 23:00 0.00 4.67 ---- 6614 49.35 12.18 ----
Data processed at Thu 19Feb2026 05:48 GMT

NOTICE: If you are parsing this page

Please convert to using our Data API. Starting early 2026 we will be migrating to: https://water.usace.army.mil with modern pages rendered in JavaScript. When this migration completes you will no longer be able to scrape this page! CWMSDataAPI (CDA)

Timeseries IDs (TSIDs)

TSIDs used from left to right in the data table
TULA.Precip-Inc.Total.1Hour.1Hour.Ccp-Rev
TULA.Stage.Inst.1Hour.0.Ccp-Rev
TULA.Stage-Alt.Inst.1Hour.0.Ccp-Rev
TULA.Flow.Inst.1Hour.0.Ccp-Rev
TULA.Temp-Water.Inst.1Hour.0.Ccp-Rev
TULA.Conc-DO.Inst.1Hour.0.Ccp-Rev
TULA.Volt-Battery Load.Inst.1Hour.0.Ccp-Rev

                            

All information presented herein is the property of the government of the United States of America and may be revised or deleted at any time without prior notice. Dissemination of this information without the expressed written consent of the Public Affairs Office, Tulsa District U.S. Army Corps of Engineers is strictly prohibited. These data are gathered electronically and, as presented, have NOT undergone any form of quality control. These data are NOT guaranteed to be valid or correct.